createdAt,value
2018-01-01T00:00:40.254Z,68.60
2018-01-01T00:03:07.841Z,67.90
2018-01-01T00:05:35.458Z,67.90
2018-01-01T00:08:03.634Z,68.20
2018-01-01T00:10:31.145Z,67.30
2018-01-01T00:12:58.854Z,67.50
2018-01-01T00:15:27.146Z,67.30
2018-01-01T00:17:54.665Z,68.00
2018-01-01T00:20:23.087Z,66.70
2018-01-01T00:22:51.650Z,66.70
2018-01-01T00:25:19.995Z,66.60
2018-01-01T00:27:48.995Z,66.50
2018-01-01T00:30:16.501Z,66.50
2018-01-01T00:32:44.188Z,65.90
2018-01-01T00:35:11.714Z,65.80
2018-01-01T00:37:39.287Z,65.60
2018-01-01T00:40:07.641Z,65.60
2018-01-01T00:42:35.164Z,65.60
2018-01-01T00:45:02.721Z,65.30
2018-01-01T00:47:31.000Z,65.40
2018-01-01T00:49:58.560Z,64.90
2018-01-01T00:52:26.133Z,65.00
2018-01-01T00:54:54.299Z,65.00
2018-01-01T00:57:21.928Z,65.00
2018-01-01T00:59:49.460Z,64.60
2018-01-01T01:02:17.886Z,65.30
2018-01-01T01:04:48.188Z,65.30
2018-01-01T01:07:16.026Z,65.40
2018-01-01T01:09:44.913Z,65.80
2018-01-01T01:12:12.501Z,66.00
2018-01-01T01:14:40.188Z,65.90
2018-01-01T01:17:07.721Z,66.10
2018-01-01T01:19:35.281Z,66.50
2018-01-01T01:22:02.820Z,66.30
2018-01-01T01:24:31.093Z,66.80
2018-01-01T01:26:59.424Z,66.80
2018-01-01T01:29:28.467Z,67.00
2018-01-01T01:31:56.933Z,66.90
2018-01-01T01:34:24.548Z,66.90
2018-01-01T01:36:52.944Z,67.10
2018-01-01T01:39:21.567Z,67.10
2018-01-01T01:41:49.737Z,67.10
2018-01-01T01:44:17.455Z,66.80
2018-01-01T01:46:46.478Z,66.80
2018-01-01T01:49:14.057Z,66.80
2018-01-01T01:51:41.605Z,66.40
2018-01-01T01:54:09.088Z,66.10
2018-01-01T01:56:36.897Z,65.80
2018-01-01T01:59:05.147Z,65.30
2018-01-01T02:01:32.745Z,65.30
2018-01-01T02:04:01.094Z,65.70
2018-01-01T02:06:29.766Z,65.70
2018-01-01T02:08:57.325Z,65.50
2018-01-01T02:11:24.994Z,65.40
2018-01-01T02:13:52.800Z,65.50
2018-01-01T02:16:21.056Z,64.60
2018-01-01T02:18:48.703Z,64.60
2018-01-01T02:21:16.255Z,64.90
2018-01-01T02:23:44.740Z,64.70
2018-01-01T02:26:12.251Z,64.50
2018-01-01T02:28:39.738Z,64.00
2018-01-01T02:31:07.333Z,64.40
2018-01-01T02:33:34.847Z,64.30
2018-01-01T02:36:03.347Z,64.20
2018-01-01T02:38:31.820Z,64.00
2018-01-01T02:40:59.329Z,64.00
2018-01-01T02:43:28.739Z,63.70
2018-01-01T02:45:56.265Z,63.70
2018-01-01T02:48:25.252Z,63.70
2018-01-01T02:50:54.448Z,63.50
2018-01-01T02:53:22.525Z,63.40
2018-01-01T02:55:50.647Z,63.40
2018-01-01T02:58:18.320Z,63.20
2018-01-01T03:00:45.873Z,63.20
2018-01-01T03:03:14.097Z,63.20
2018-01-01T03:05:41.783Z,62.50
2018-01-01T03:08:09.286Z,62.60
2018-01-01T03:10:37.173Z,62.10
2018-01-01T03:13:04.844Z,62.10
2018-01-01T03:15:32.905Z,61.80
2018-01-01T03:18:00.424Z,61.60
2018-01-01T03:20:28.100Z,61.20
2018-01-01T03:22:57.593Z,61.70
2018-01-01T03:25:26.187Z,61.00
2018-01-01T03:27:53.686Z,61.60
2018-01-01T03:30:21.993Z,61.30
2018-01-01T03:32:49.595Z,61.00
2018-01-01T03:35:17.941Z,60.80
2018-01-01T03:37:46.288Z,60.80
2018-01-01T03:40:13.830Z,61.20
2018-01-01T03:42:41.332Z,61.80
2018-01-01T03:45:09.623Z,61.50
2018-01-01T03:47:37.170Z,61.50
2018-01-01T03:50:05.468Z,61.90
2018-01-01T03:52:33.005Z,61.90
2018-01-01T03:55:01.313Z,62.80
2018-01-01T03:57:28.834Z,62.80
2018-01-01T03:59:56.482Z,63.20
2018-01-01T04:02:24.897Z,63.20
2018-01-01T04:04:53.666Z,63.80
2018-01-01T04:07:21.411Z,63.70
2018-01-01T04:09:49.153Z,63.80
2018-01-01T04:12:17.446Z,63.80
2018-01-01T04:14:45.208Z,63.70
2018-01-01T04:17:13.560Z,64.10
2018-01-01T04:19:41.963Z,64.30
2018-01-01T04:22:09.705Z,64.20
2018-01-01T04:24:38.001Z,64.50
2018-01-01T04:27:06.505Z,64.40
2018-01-01T04:29:34.024Z,64.40
2018-01-01T04:32:01.537Z,64.60
2018-01-01T04:34:29.062Z,64.60
2018-01-01T04:36:57.372Z,64.50
2018-01-01T04:39:24.930Z,64.50
2018-01-01T04:41:53.014Z,64.50
2018-01-01T04:44:20.689Z,64.50
2018-01-01T04:46:48.826Z,64.80
2018-01-01T04:49:16.590Z,65.20
2018-01-01T04:51:44.389Z,65.70
2018-01-01T04:54:13.061Z,66.30
2018-01-01T04:56:41.590Z,67.00
2018-01-01T04:59:10.402Z,66.30
2018-01-01T05:01:37.964Z,67.00
2018-01-01T05:04:05.735Z,67.40
2018-01-01T05:06:34.936Z,67.30
2018-01-01T05:09:02.599Z,67.30
2018-01-01T05:11:30.518Z,67.40
2018-01-01T05:13:58.780Z,68.00
2018-01-01T05:16:26.756Z,68.00
2018-01-01T05:18:55.048Z,67.80
2018-01-01T05:21:23.443Z,67.90
2018-01-01T05:23:51.780Z,68.30
2018-01-01T05:26:19.404Z,68.30
2018-01-01T05:28:47.089Z,68.70
2018-01-01T05:31:15.969Z,69.00
2018-01-01T05:33:43.681Z,68.70
2018-01-01T05:36:11.173Z,68.80
2018-01-01T05:38:39.681Z,68.70
2018-01-01T05:41:07.468Z,68.70
2018-01-01T05:43:35.688Z,68.90
2018-01-01T05:46:03.193Z,68.90
2018-01-01T05:48:30.809Z,69.00
2018-01-01T05:50:58.304Z,68.60
2018-01-01T05:53:26.645Z,68.40
2018-01-01T05:55:55.018Z,68.60
2018-01-01T05:58:22.550Z,68.30
2018-01-01T06:00:50.399Z,68.30
2018-01-01T06:03:19.073Z,68.90
2018-01-01T06:05:46.601Z,69.00
2018-01-01T06:08:14.109Z,68.60
2018-01-01T06:10:43.352Z,68.50
2018-01-01T06:13:10.914Z,68.30
2018-01-01T06:15:38.573Z,68.50
2018-01-01T06:18:06.196Z,68.10
2018-01-01T06:20:33.699Z,67.80
2018-01-01T06:23:01.233Z,67.50
2018-01-01T06:25:29.534Z,65.10
2018-01-01T06:27:57.064Z,65.00
2018-01-01T06:30:25.298Z,63.20
2018-01-01T06:32:52.814Z,62.80
2018-01-01T06:35:21.045Z,61.00
2018-01-01T06:37:48.625Z,58.40
2018-01-01T06:40:17.121Z,57.50
2018-01-01T06:42:44.682Z,57.80
2018-01-01T06:45:12.228Z,57.70
2018-01-01T06:47:40.288Z,57.30
2018-01-01T06:50:08.608Z,55.90
2018-01-01T06:52:36.825Z,55.90
2018-01-01T06:55:05.132Z,55.70
2018-01-01T06:57:32.652Z,55.70
2018-01-01T07:00:00.962Z,54.60
2018-01-01T07:02:29.270Z,55.70
2018-01-01T07:04:56.796Z,55.70
2018-01-01T07:07:25.244Z,55.90
2018-01-01T07:09:53.541Z,56.00
2018-01-01T07:12:21.110Z,56.00
2018-01-01T07:14:50.619Z,56.00
2018-01-01T07:17:19.005Z,55.90
2018-01-01T07:19:46.525Z,55.90
2018-01-01T07:22:14.119Z,55.90
2018-01-01T07:24:41.630Z,56.00
2018-01-01T07:27:09.163Z,56.50
2018-01-01T07:29:37.990Z,57.00
2018-01-01T07:32:05.521Z,56.50
2018-01-01T07:34:34.097Z,56.80
2018-01-01T07:37:01.616Z,56.80
2018-01-01T07:39:29.223Z,56.90
2018-01-01T07:41:56.814Z,56.90
2018-01-01T07:44:25.831Z,57.40
2018-01-01T07:46:53.365Z,57.40
2018-01-01T07:49:21.676Z,58.20
2018-01-01T07:51:49.181Z,58.20
2018-01-01T07:54:16.749Z,58.50
2018-01-01T07:56:44.391Z,59.00
2018-01-01T07:59:11.969Z,59.10
2018-01-01T08:01:40.229Z,59.50
2018-01-01T08:04:08.464Z,59.70
2018-01-01T08:06:36.799Z,60.20
2018-01-01T08:09:04.402Z,60.00
2018-01-01T08:11:32.722Z,60.80
2018-01-01T08:14:01.213Z,60.80
2018-01-01T08:16:28.729Z,60.70
2018-01-01T08:18:56.229Z,60.40
2018-01-01T08:21:23.740Z,60.20
2018-01-01T08:23:51.248Z,60.60
2018-01-01T08:26:18.924Z,60.00
2018-01-01T08:28:46.446Z,60.20
2018-01-01T08:31:15.472Z,60.80
2018-01-01T08:33:42.996Z,60.80
2018-01-01T08:36:10.500Z,60.80
2018-01-01T08:38:39.011Z,61.10
2018-01-01T08:41:07.308Z,61.00
2018-01-01T08:43:34.949Z,61.00
2018-01-01T08:46:02.500Z,60.90
2018-01-01T08:48:30.994Z,60.80
2018-01-01T08:50:59.055Z,60.70
2018-01-01T08:53:26.637Z,60.90
2018-01-01T08:55:54.193Z,60.60
2018-01-01T08:58:22.565Z,60.40
2018-01-01T09:00:50.900Z,60.20
2018-01-01T09:03:18.438Z,60.20
2018-01-01T09:05:45.956Z,60.10
2018-01-01T09:08:14.272Z,60.00
2018-01-01T09:10:41.977Z,59.50
2018-01-01T09:13:09.472Z,59.10
2018-01-01T09:15:37.063Z,58.50
2018-01-01T09:18:05.567Z,58.10
2018-01-01T09:20:33.069Z,58.10
2018-01-01T09:23:00.595Z,57.50
2018-01-01T09:25:28.112Z,56.90
2018-01-01T09:27:55.721Z,56.70
2018-01-01T09:30:23.300Z,55.60
2018-01-01T09:32:51.201Z,55.10
2018-01-01T09:37:51.758Z,54.30
2018-01-01T09:40:20.015Z,54.30
2018-01-01T09:42:48.591Z,53.80
2018-01-01T09:45:16.540Z,53.80
2018-01-01T09:47:44.308Z,53.90
2018-01-01T09:50:12.184Z,54.80
2018-01-01T09:52:39.773Z,54.90
2018-01-01T09:55:07.589Z,54.80
2018-01-01T09:57:35.770Z,54.90
2018-01-01T10:00:03.371Z,54.50
2018-01-01T10:02:32.067Z,54.50
2018-01-01T10:04:59.727Z,54.50
2018-01-01T10:07:27.254Z,54.50
2018-01-01T10:09:55.619Z,54.20
2018-01-01T10:12:23.398Z,54.20
2018-01-01T10:14:52.597Z,53.10
2018-01-01T10:17:20.305Z,53.10
2018-01-01T10:19:48.393Z,53.40
2018-01-01T10:22:16.084Z,53.20
2018-01-01T10:24:43.679Z,53.10
2018-01-01T10:27:12.000Z,52.90
2018-01-01T10:29:40.408Z,52.90
2018-01-01T10:32:07.960Z,52.90
2018-01-01T10:34:36.860Z,53.20
2018-01-01T10:37:05.220Z,53.40
2018-01-01T10:39:33.622Z,53.40
2018-01-01T10:42:01.179Z,54.20
2018-01-01T10:44:28.975Z,53.50
2018-01-01T10:46:57.146Z,53.60
2018-01-01T10:49:24.804Z,53.10
2018-01-01T10:51:53.107Z,53.40
2018-01-01T10:54:21.025Z,54.00
2018-01-01T10:56:48.576Z,53.90
2018-01-01T10:59:17.910Z,54.00
2018-01-01T11:01:47.152Z,53.90
2018-01-01T11:04:14.728Z,53.90
2018-01-01T11:06:43.135Z,53.80
2018-01-01T11:09:11.637Z,53.50
2018-01-01T11:11:39.239Z,53.50
2018-01-01T11:14:07.672Z,53.10
2018-01-01T11:16:36.364Z,53.10
2018-01-01T11:19:03.897Z,53.00
2018-01-01T11:21:31.508Z,53.40
2018-01-01T11:24:00.008Z,53.20
2018-01-01T11:26:29.721Z,53.20
2018-01-01T11:28:57.336Z,52.10
2018-01-01T11:31:25.408Z,52.00
2018-01-01T11:33:53.888Z,51.90
2018-01-01T11:36:21.662Z,51.90
2018-01-01T11:38:49.212Z,52.00
2018-01-01T11:41:16.782Z,51.90
2018-01-01T11:43:44.343Z,51.10
2018-01-01T11:46:12.577Z,51.50
2018-01-01T11:48:41.154Z,50.90
2018-01-01T11:51:09.262Z,50.90
2018-01-01T11:53:36.811Z,50.70
2018-01-01T11:56:05.122Z,50.90
2018-01-01T11:58:32.818Z,51.00
2018-01-01T12:01:01.602Z,49.90
2018-01-01T12:03:29.897Z,50.00
2018-01-01T12:05:59.322Z,50.20
2018-01-01T12:08:28.562Z,50.20
2018-01-01T12:10:56.302Z,49.70
2018-01-01T12:13:24.615Z,50.10
2018-01-01T12:15:52.759Z,50.10
2018-01-01T12:18:21.257Z,49.80
2018-01-01T12:20:48.755Z,49.80
2018-01-01T12:23:17.383Z,49.60
2018-01-01T12:25:45.581Z,49.70
2018-01-01T12:28:13.662Z,49.40
2018-01-01T12:30:41.395Z,49.40
2018-01-01T12:33:09.834Z,49.20
2018-01-01T12:35:37.424Z,48.90
2018-01-01T12:38:05.005Z,48.90
2018-01-01T12:40:32.988Z,48.70
2018-01-01T12:43:01.308Z,49.00
2018-01-01T12:45:28.890Z,48.90
2018-01-01T12:47:56.410Z,48.70
2018-01-01T12:50:24.007Z,48.20
2018-01-01T12:52:51.689Z,48.60
2018-01-01T12:55:19.254Z,48.80
2018-01-01T12:57:46.803Z,49.30
2018-01-01T13:00:14.418Z,49.40
2018-01-01T13:02:42.767Z,49.60
2018-01-01T13:05:12.750Z,49.60
2018-01-01T13:07:40.833Z,49.20
2018-01-01T13:10:08.566Z,49.10
2018-01-01T13:12:36.175Z,49.00
2018-01-01T13:15:03.787Z,49.40
2018-01-01T13:17:31.451Z,49.30
2018-01-01T13:19:59.827Z,49.60
2018-01-01T13:22:27.426Z,49.50
2018-01-01T13:24:55.299Z,48.90
2018-01-01T13:27:24.637Z,46.80
2018-01-01T13:29:53.729Z,46.70
2018-01-01T13:32:22.764Z,46.40
2018-01-01T13:34:52.158Z,46.40
2018-01-01T13:37:19.772Z,46.50
2018-01-01T13:39:47.292Z,46.80
2018-01-01T13:42:15.673Z,48.20
2018-01-01T13:44:43.210Z,48.20
2018-01-01T13:47:11.509Z,47.80
2018-01-01T13:49:39.021Z,47.70
2018-01-01T13:52:06.631Z,47.60
2018-01-01T13:54:34.110Z,47.80
2018-01-01T13:57:01.675Z,47.80
2018-01-01T13:59:29.205Z,48.20
2018-01-01T14:01:56.785Z,48.40
2018-01-01T14:04:24.340Z,48.60
2018-01-01T14:06:51.932Z,48.70
2018-01-01T14:09:19.482Z,48.70
2018-01-01T14:11:47.065Z,49.00
2018-01-01T14:14:14.606Z,49.10
2018-01-01T14:16:42.210Z,49.00
2018-01-01T14:19:09.715Z,49.10
2018-01-01T14:21:37.363Z,49.10
2018-01-01T14:24:05.649Z,49.50
2018-01-01T14:26:34.053Z,49.90
2018-01-01T14:29:01.549Z,49.80
2018-01-01T14:31:29.048Z,49.40
2018-01-01T14:33:57.366Z,49.80
2018-01-01T14:36:24.953Z,49.80
2018-01-01T14:38:52.450Z,50.00
2018-01-01T14:41:19.986Z,50.60
2018-01-01T14:43:47.650Z,51.00
2018-01-01T14:46:15.158Z,51.20
2018-01-01T14:48:42.759Z,51.50
2018-01-01T14:51:10.278Z,51.60
2018-01-01T14:53:38.691Z,51.90
2018-01-01T14:56:06.301Z,51.90
2018-01-01T14:58:33.844Z,51.90
2018-01-01T15:01:01.352Z,52.20
2018-01-01T15:03:29.938Z,52.40
2018-01-01T15:05:57.513Z,52.40
2018-01-01T15:08:25.798Z,52.60
2018-01-01T15:10:53.380Z,52.50
2018-01-01T15:13:21.181Z,52.60
2018-01-01T15:15:48.760Z,52.30
2018-01-01T15:18:16.291Z,51.90
2018-01-01T15:20:44.440Z,51.80
2018-01-01T15:23:12.773Z,52.20
2018-01-01T15:25:40.276Z,52.10
2018-01-01T15:28:08.933Z,52.10
2018-01-01T15:30:36.529Z,52.20
2018-01-01T15:33:04.932Z,52.50
2018-01-01T15:35:33.455Z,52.20
2018-01-01T15:38:01.109Z,52.30
2018-01-01T15:40:28.628Z,52.60
2018-01-01T15:42:57.589Z,52.40
2018-01-01T15:45:25.139Z,52.30
2018-01-01T15:47:52.716Z,52.50
2018-01-01T15:50:20.276Z,52.30
2018-01-01T15:52:48.945Z,52.90
2018-01-01T15:55:16.598Z,52.60
2018-01-01T15:57:44.230Z,52.60
2018-01-01T16:00:12.517Z,53.40
2018-01-01T16:02:41.971Z,53.60
2018-01-01T16:05:09.452Z,53.50
2018-01-01T16:07:36.978Z,53.70
2018-01-01T16:10:04.486Z,53.90
2018-01-01T16:12:32.077Z,53.80
2018-01-01T16:15:00.632Z,53.90
2018-01-01T16:17:28.215Z,54.20
2018-01-01T16:19:55.830Z,54.40
2018-01-01T16:22:24.480Z,54.60
2018-01-01T16:24:52.824Z,55.10
2018-01-01T16:27:20.346Z,55.10
2018-01-01T16:29:48.683Z,55.40
2018-01-01T16:32:16.205Z,55.40
2018-01-01T16:34:44.514Z,55.70
2018-01-01T16:37:12.016Z,55.60
2018-01-01T16:39:39.668Z,55.70
2018-01-01T16:42:08.922Z,55.90
2018-01-01T16:44:36.496Z,55.90
2018-01-01T16:47:06.415Z,55.90
2018-01-01T16:49:33.933Z,55.90
2018-01-01T16:52:01.549Z,55.80
2018-01-01T16:54:29.136Z,56.40
2018-01-01T16:56:56.672Z,56.60
2018-01-01T16:59:24.170Z,56.40
2018-01-01T17:01:51.756Z,56.40
2018-01-01T17:04:20.038Z,57.30
2018-01-01T17:06:48.394Z,56.70
2018-01-01T17:09:15.929Z,56.90
2018-01-01T17:11:43.444Z,56.90
2018-01-01T17:14:10.994Z,57.10
2018-01-01T17:16:38.559Z,57.10
2018-01-01T17:19:06.269Z,57.20
2018-01-01T17:21:33.801Z,57.20
2018-01-01T17:24:01.402Z,57.30
2018-01-01T17:26:29.056Z,57.30
2018-01-01T17:28:57.440Z,57.60
2018-01-01T17:31:25.139Z,57.60
2018-01-01T17:33:52.877Z,57.60
2018-01-01T17:36:20.565Z,57.70
2018-01-01T17:38:48.089Z,57.80
2018-01-01T17:41:15.682Z,57.90
2018-01-01T17:43:43.241Z,58.20
2018-01-01T17:46:11.529Z,59.50
2018-01-01T17:48:39.064Z,59.40
2018-01-01T17:51:07.841Z,60.00
2018-01-01T17:53:35.401Z,60.80
2018-01-01T17:56:03.717Z,60.90
2018-01-01T17:58:31.281Z,60.80
2018-01-01T18:00:59.572Z,61.60
2018-01-01T18:03:27.192Z,61.60
2018-01-01T18:05:54.832Z,62.10
2018-01-01T18:08:22.367Z,62.60
2018-01-01T18:10:50.758Z,63.40
2018-01-01T18:13:18.272Z,63.20
2018-01-01T18:15:45.796Z,63.30
2018-01-01T18:18:13.817Z,63.40
2018-01-01T18:20:41.879Z,63.30
2018-01-01T18:23:09.447Z,63.40
2018-01-01T18:25:37.004Z,63.60
2018-01-01T18:28:04.540Z,63.60
2018-01-01T18:30:32.048Z,63.30
2018-01-01T18:32:59.605Z,63.40
2018-01-01T18:35:27.198Z,63.50
2018-01-01T18:37:54.694Z,63.50
2018-01-01T18:40:22.258Z,63.50
2018-01-01T18:42:49.735Z,63.40
2018-01-01T18:45:17.986Z,63.70
2018-01-01T18:47:45.539Z,64.40
2018-01-01T18:50:13.838Z,65.10
2018-01-01T18:52:41.377Z,65.00
2018-01-01T18:55:08.936Z,65.40
2018-01-01T18:57:39.374Z,65.10
2018-01-01T19:00:07.705Z,65.50
2018-01-01T19:02:35.287Z,64.70
2018-01-01T19:05:02.833Z,64.80
2018-01-01T19:07:30.477Z,64.70
2018-01-01T19:09:58.805Z,64.40
2018-01-01T19:12:27.111Z,64.20
2018-01-01T19:14:55.411Z,64.30
2018-01-01T19:17:22.950Z,64.30
2018-01-01T19:19:51.293Z,64.50
2018-01-01T19:22:18.883Z,64.50
2018-01-01T19:24:47.061Z,64.60
2018-01-01T19:27:14.690Z,64.60
2018-01-01T19:29:42.367Z,64.60
2018-01-01T19:32:09.973Z,64.80
2018-01-01T19:34:39.041Z,65.30
2018-01-01T19:37:07.266Z,65.30
2018-01-01T19:39:35.069Z,65.00
2018-01-01T19:42:03.613Z,65.10
2018-01-01T19:44:31.907Z,65.50
2018-01-01T19:47:00.166Z,65.80
2018-01-01T19:49:28.436Z,66.10
2018-01-01T19:51:55.918Z,66.10
2018-01-01T19:54:24.172Z,66.00
2018-01-01T19:56:51.755Z,66.00
2018-01-01T19:59:24.230Z,66.20
2018-01-01T20:01:52.409Z,66.40
2018-01-01T20:04:20.714Z,66.00
2018-01-01T20:06:48.286Z,65.70
2018-01-01T20:09:15.782Z,65.80
2018-01-01T20:11:43.284Z,65.80
2018-01-01T20:14:10.861Z,66.00
2018-01-01T20:16:39.845Z,66.50
2018-01-01T20:19:08.097Z,66.40
2018-01-01T20:21:35.576Z,66.40
2018-01-01T20:24:03.105Z,66.40
2018-01-01T20:26:30.625Z,66.60
2018-01-01T20:28:58.900Z,66.70
2018-01-01T20:31:26.388Z,66.70
2018-01-01T20:33:54.656Z,66.50
2018-01-01T20:36:22.881Z,66.50
2018-01-01T20:38:52.757Z,66.90
2018-01-01T20:41:20.240Z,67.00
2018-01-01T20:43:47.748Z,67.30
2018-01-01T20:46:15.298Z,67.30
2018-01-01T20:48:42.802Z,67.40
2018-01-01T20:51:10.364Z,67.00
2018-01-01T20:53:38.623Z,67.20
2018-01-01T20:56:06.935Z,67.40
2018-01-01T20:58:34.494Z,67.40
2018-01-01T21:01:01.951Z,67.50
2018-01-01T21:03:31.416Z,66.90
2018-01-01T21:05:58.964Z,66.80
2018-01-01T21:08:26.473Z,66.80
2018-01-01T21:10:54.842Z,66.90
2018-01-01T21:13:23.865Z,66.60
2018-01-01T21:15:52.130Z,66.40
2018-01-01T21:18:19.732Z,66.40
2018-01-01T21:20:47.333Z,66.70
2018-01-01T21:23:14.826Z,66.60
2018-01-01T21:25:43.144Z,66.50
2018-01-01T21:28:10.665Z,66.40
2018-01-01T21:30:38.188Z,66.50
2018-01-01T21:33:05.678Z,66.60
2018-01-01T21:35:33.198Z,66.70
2018-01-01T21:38:00.762Z,66.60
2018-01-01T21:40:29.054Z,66.50
2018-01-01T21:42:56.662Z,66.50
2018-01-01T21:45:24.161Z,66.70
2018-01-01T21:47:51.668Z,66.50
2018-01-01T21:50:19.213Z,66.30
2018-01-01T21:52:46.737Z,66.20
2018-01-01T21:55:15.003Z,66.40
2018-01-01T21:57:42.543Z,66.40
2018-01-01T22:00:10.584Z,66.50
2018-01-01T22:02:38.928Z,67.10
2018-01-01T22:05:07.498Z,66.90
2018-01-01T22:07:35.129Z,66.80
2018-01-01T22:10:02.713Z,67.10
2018-01-01T22:12:30.218Z,66.70
2018-01-01T22:14:57.757Z,66.70
2018-01-01T22:17:25.273Z,66.70
2018-01-01T22:19:52.773Z,66.70
2018-01-01T22:22:20.300Z,66.30
2018-01-01T22:24:47.814Z,66.60
2018-01-01T22:27:15.377Z,66.70
2018-01-01T22:29:42.906Z,66.90
2018-01-01T22:32:10.396Z,67.00
2018-01-01T22:34:38.277Z,67.00
2018-01-01T22:37:06.064Z,66.70
2018-01-01T22:39:34.354Z,66.50
2018-01-01T22:42:02.632Z,66.40
2018-01-01T22:44:30.131Z,66.50
2018-01-01T22:46:57.608Z,66.10
2018-01-01T22:49:25.214Z,66.30
2018-01-01T22:51:53.462Z,66.10
2018-01-01T22:54:21.070Z,66.10
2018-01-01T22:56:49.333Z,66.40
2018-01-01T22:59:17.604Z,65.80
2018-01-01T23:01:45.189Z,65.80
2018-01-01T23:04:14.177Z,65.50
2018-01-01T23:06:42.454Z,65.90
2018-01-01T23:09:09.953Z,65.90
2018-01-01T23:11:37.509Z,66.00
2018-01-01T23:14:05.051Z,66.00
2018-01-01T23:16:33.345Z,66.30
2018-01-01T23:19:01.595Z,65.90
2018-01-01T23:21:29.081Z,65.90
2018-01-01T23:23:57.313Z,65.80
2018-01-01T23:26:24.850Z,65.80
2018-01-01T23:28:52.346Z,65.50
2018-01-01T23:31:19.884Z,65.30
2018-01-01T23:33:47.351Z,65.60
2018-01-01T23:36:14.831Z,65.90
2018-01-01T23:38:43.021Z,66.10
2018-01-01T23:41:10.517Z,66.00
2018-01-01T23:43:38.834Z,66.10
2018-01-01T23:46:06.355Z,66.10
2018-01-01T23:48:35.574Z,66.10
2018-01-01T23:51:03.838Z,65.80
2018-01-01T23:53:32.140Z,66.60
2018-01-01T23:55:59.652Z,65.90
2018-01-01T23:58:27.759Z,66.00
